Argo, Illinois
Current Conditions -  °F | °C
As of 11:53 AM on Tuesday 21 Oct 2014 (Local Time) from KMDW Reporting Station
Overcast Overcast  
Wind Chill: 12°   Ceiling: 3200
Heat Index: 12°   Visibility: 10mi
Dew Point:   Wind: 17mph
Humidity: 66%   Direction: 360°N
Pressure: 30.16"   Gusts: NA
Location:  41.7806°N, 87.8151°W
Report Text: KMDW 211653Z 36015KT 10SM FEW024 BKN032 OVC050 12/06 A3016 RMK AO2 SLP215 T01170056
Loading
Personal Weather Stations






























Interactive Weather Map
Tropical Storm Tracking
New forecast layout! Learn more

10-Day Weather Forecast

Advertisements
Track Severe Weather on mobile